GIPSM EGPK-EGPE
Flight info
| Callsign | GIPSM |
|---|---|
| Flight time | 0h 59m |
| Altitude | 4500 |
| Route | OBN |
| Aircraft | BE58/L-SDFGRY/C |
Departure
| Time | 2026-04-21 09:33 |
|---|---|
| Airport | Glasgow Prestwick Airport (EGPK) |
Arrival
| Time | 2026-04-21 10:33 |
|---|---|
| Airport | Inverness Airport (EGPE) |
| Time | Latitude | Longitude | Altitude | Speed | Heading |
|---|---|---|---|---|---|
| 2026-04-21 09:21 | 55.51078 | -4.58153 | 67 ft | 0 kts | 124° |
| 2026-04-21 09:26 | 55.51075 | -4.58146 | 67 ft | 3 kts | 142° |
| 2026-04-21 09:26 | 55.51044 | -4.58187 | 67 ft | 9 kts | 245° |
| 2026-04-21 09:26 | 55.51004 | -4.58330 | 67 ft | 15 kts | 242° |
| 2026-04-21 09:27 | 55.50946 | -4.58530 | 67 ft | 20 kts | 249° |
| 2026-04-21 09:27 | 55.50887 | -4.58774 | 67 ft | 21 kts | 245° |
| 2026-04-21 09:27 | 55.50822 | -4.59009 | 68 ft | 21 kts | 242° |
| 2026-04-21 09:27 | 55.50727 | -4.59174 | 68 ft | 19 kts | 244° |
| 2026-04-21 09:28 | 55.50694 | -4.59332 | 68 ft | 11 kts | 290° |
| 2026-04-21 09:28 | 55.50739 | -4.59464 | 68 ft | 13 kts | 301° |
| 2026-04-21 09:28 | 55.50792 | -4.59612 | 68 ft | 14 kts | 305° |
| 2026-04-21 09:28 | 55.50848 | -4.59774 | 68 ft | 16 kts | 300° |
| 2026-04-21 09:29 | 55.50906 | -4.59949 | 68 ft | 17 kts | 301° |
| 2026-04-21 09:29 | 55.50970 | -4.60134 | 68 ft | 18 kts | 302° |
| 2026-04-21 09:29 | 55.51037 | -4.60326 | 68 ft | 18 kts | 301° |
| 2026-04-21 09:29 | 55.51107 | -4.60526 | 68 ft | 19 kts | 301° |
| 2026-04-21 09:30 | 55.51176 | -4.60728 | 68 ft | 19 kts | 302° |
| 2026-04-21 09:30 | 55.51252 | -4.60924 | 68 ft | 19 kts | 304° |
| 2026-04-21 09:30 | 55.51317 | -4.60979 | 68 ft | 10 kts | 55° |
| 2026-04-21 09:30 | 55.51325 | -4.60945 | 68 ft | 0 kts | 81° |
| 2026-04-21 09:31 | 55.51326 | -4.60942 | 68 ft | 1 kts | 81° |
| 2026-04-21 09:31 | 55.51329 | -4.60903 | 68 ft | 4 kts | 81° |
| 2026-04-21 09:31 | 55.51336 | -4.60825 | 68 ft | 7 kts | 79° |
| 2026-04-21 09:32 | 55.51348 | -4.60719 | 68 ft | 9 kts | 81° |
| 2026-04-21 09:32 | 55.51327 | -4.60583 | 68 ft | 18 kts | 122° |
| 2026-04-21 09:32 | 55.51160 | -4.60098 | 68 ft | 72 kts | 122° |
| 2026-04-21 09:32 | 55.50839 | -4.59199 | 128 ft | 92 kts | 120° |
| 2026-04-21 09:33 | 55.50479 | -4.58306 | 360 ft | 89 kts | 120° |
| 2026-04-21 09:33 | 55.50127 | -4.57407 | 601 ft | 90 kts | 118° |
| 2026-04-21 09:33 | 55.49778 | -4.56491 | 807 ft | 90 kts | 110° |
| 2026-04-21 09:33 | 55.49842 | -4.55436 | 931 ft | 96 kts | 53° |
| 2026-04-21 09:34 | 55.50444 | -4.54745 | 1035 ft | 107 kts | 34° |
| 2026-04-21 09:34 | 55.51170 | -4.54470 | 1147 ft | 121 kts | 355° |
| 2026-04-21 09:34 | 55.51927 | -4.55368 | 1149 ft | 139 kts | 313° |
| 2026-04-21 09:34 | 55.52451 | -4.56824 | 1214 ft | 142 kts | 306° |
| 2026-04-21 09:35 | 55.52968 | -4.58404 | 1204 ft | 152 kts | 307° |
| 2026-04-21 09:35 | 55.53634 | -4.59823 | 1258 ft | 150 kts | 326° |
| 2026-04-21 09:35 | 55.54498 | -4.60851 | 1269 ft | 151 kts | 335° |
| 2026-04-21 09:35 | 55.55425 | -4.61777 | 1277 ft | 154 kts | 338° |
| 2026-04-21 09:36 | 55.56339 | -4.62725 | 1349 ft | 152 kts | 335° |
| 2026-04-21 09:36 | 55.57252 | -4.63705 | 1316 ft | 158 kts | 336° |
| 2026-04-21 09:36 | 55.58204 | -4.64680 | 1365 ft | 157 kts | 336° |
| 2026-04-21 09:36 | 55.59134 | -4.65691 | 1384 ft | 160 kts | 333° |
| 2026-04-21 09:37 | 55.60081 | -4.66802 | 1349 ft | 164 kts | 330° |
| 2026-04-21 09:37 | 55.60934 | -4.68119 | 1419 ft | 163 kts | 322° |
| 2026-04-21 09:37 | 55.61731 | -4.69574 | 1485 ft | 167 kts | 318° |
| 2026-04-21 09:37 | 55.62485 | -4.71115 | 1761 ft | 162 kts | 317° |
| 2026-04-21 09:38 | 55.63213 | -4.72649 | 1915 ft | 166 kts | 317° |
| 2026-04-21 09:38 | 55.63960 | -4.74219 | 2075 ft | 167 kts | 318° |
| 2026-04-21 09:38 | 55.64713 | -4.75744 | 2289 ft | 165 kts | 319° |
| 2026-04-21 09:38 | 55.65507 | -4.77250 | 2424 ft | 168 kts | 322° |
| 2026-04-21 09:39 | 55.66321 | -4.78709 | 2632 ft | 167 kts | 322° |
| 2026-04-21 09:39 | 55.67135 | -4.80183 | 2830 ft | 168 kts | 322° |
| 2026-04-21 09:39 | 55.67961 | -4.81659 | 2988 ft | 171 kts | 322° |
| 2026-04-21 09:39 | 55.68802 | -4.83146 | 3204 ft | 169 kts | 324° |
| 2026-04-21 09:40 | 55.69659 | -4.84546 | 3382 ft | 169 kts | 328° |
| 2026-04-21 09:40 | 55.70597 | -4.85802 | 3556 ft | 168 kts | 332° |
| 2026-04-21 09:40 | 55.71528 | -4.87073 | 3760 ft | 168 kts | 329° |
| 2026-04-21 09:40 | 55.72434 | -4.88384 | 3935 ft | 169 kts | 329° |
| 2026-04-21 09:41 | 55.73371 | -4.89657 | 4112 ft | 169 kts | 332° |
| 2026-04-21 09:41 | 55.74320 | -4.90876 | 4289 ft | 169 kts | 333° |
| 2026-04-21 09:41 | 55.75279 | -4.92027 | 4417 ft | 166 kts | 335° |
| 2026-04-21 09:41 | 55.76269 | -4.93097 | 4407 ft | 166 kts | 338° |
| 2026-04-21 09:42 | 55.77268 | -4.94094 | 4438 ft | 165 kts | 338° |
| 2026-04-21 09:42 | 55.78264 | -4.95154 | 4442 ft | 167 kts | 336° |
| 2026-04-21 09:42 | 55.79257 | -4.96245 | 4441 ft | 167 kts | 336° |
| 2026-04-21 09:42 | 55.80238 | -4.97325 | 4469 ft | 166 kts | 337° |
| 2026-04-21 09:43 | 55.81240 | -4.98386 | 4462 ft | 168 kts | 337° |
| 2026-04-21 09:43 | 55.82245 | -4.99427 | 4491 ft | 167 kts | 338° |
| 2026-04-21 09:43 | 55.83241 | -5.00462 | 4500 ft | 167 kts | 337° |
| 2026-04-21 09:43 | 55.84251 | -5.01537 | 4525 ft | 167 kts | 336° |
| 2026-04-21 09:44 | 55.85228 | -5.02635 | 4544 ft | 168 kts | 334° |
| 2026-04-21 09:44 | 55.86203 | -5.03765 | 4551 ft | 168 kts | 334° |
| 2026-04-21 09:44 | 55.87183 | -5.04900 | 4578 ft | 167 kts | 334° |
| 2026-04-21 09:44 | 55.88177 | -5.06027 | 4590 ft | 167 kts | 335° |
| 2026-04-21 09:45 | 55.89171 | -5.07119 | 4596 ft | 167 kts | 336° |
| 2026-04-21 09:45 | 55.90174 | -5.08156 | 4620 ft | 166 kts | 338° |
| 2026-04-21 09:45 | 55.91158 | -5.09196 | 4624 ft | 167 kts | 337° |
| 2026-04-21 09:45 | 55.92168 | -5.10267 | 4620 ft | 168 kts | 337° |
| 2026-04-21 09:46 | 55.93176 | -5.11329 | 4632 ft | 168 kts | 337° |
| 2026-04-21 09:46 | 55.94187 | -5.12375 | 4634 ft | 168 kts | 338° |
| 2026-04-21 09:46 | 55.95206 | -5.13393 | 4638 ft | 168 kts | 339° |
| 2026-04-21 09:46 | 55.96235 | -5.14411 | 4650 ft | 168 kts | 339° |
| 2026-04-21 09:47 | 55.97266 | -5.15399 | 4655 ft | 168 kts | 340° |
| 2026-04-21 09:47 | 55.98299 | -5.16320 | 4662 ft | 167 kts | 342° |
| 2026-04-21 09:47 | 55.99354 | -5.17163 | 4677 ft | 166 kts | 344° |
| 2026-04-21 09:47 | 56.00413 | -5.18007 | 4666 ft | 166 kts | 344° |
| 2026-04-21 09:48 | 56.01467 | -5.18846 | 4673 ft | 165 kts | 344° |
| 2026-04-21 09:48 | 56.02516 | -5.19653 | 4666 ft | 166 kts | 346° |
| 2026-04-21 09:48 | 56.03589 | -5.20440 | 4655 ft | 166 kts | 346° |
| 2026-04-21 09:48 | 56.04653 | -5.21262 | 4675 ft | 165 kts | 345° |
| 2026-04-21 09:49 | 56.05703 | -5.22084 | 4668 ft | 166 kts | 345° |
| 2026-04-21 09:49 | 56.06764 | -5.22886 | 4679 ft | 166 kts | 345° |
| 2026-04-21 09:49 | 56.07812 | -5.23717 | 4695 ft | 166 kts | 343° |
| 2026-04-21 09:49 | 56.08865 | -5.24598 | 4696 ft | 167 kts | 342° |
| 2026-04-21 09:50 | 56.09914 | -5.25514 | 4701 ft | 167 kts | 341° |
| 2026-04-21 09:50 | 56.10249 | -5.25812 | 4702 ft | 167 kts | 341° |
| 2026-04-21 09:50 | 56.13060 | -5.28200 | 4718 ft | 165 kts | 345° |
| 2026-04-21 09:51 | 56.14079 | -5.28909 | 4726 ft | 164 kts | 349° |
| 2026-04-21 09:51 | 56.15172 | -5.29512 | 4725 ft | 162 kts | 354° |
| 2026-04-21 09:51 | 56.16267 | -5.29916 | 4732 ft | 160 kts | 0° |
| 2026-04-21 09:51 | 56.17359 | -5.30080 | 4733 ft | 157 kts | 7° |
| 2026-04-21 09:52 | 56.18463 | -5.30256 | 4711 ft | 162 kts | 359° |
| 2026-04-21 09:52 | 56.19584 | -5.30759 | 4706 ft | 165 kts | 351° |
| 2026-04-21 09:52 | 56.20673 | -5.31370 | 4739 ft | 163 kts | 350° |
| 2026-04-21 09:52 | 56.21752 | -5.32016 | 4723 ft | 165 kts | 349° |
| 2026-04-21 09:53 | 56.22848 | -5.32692 | 4724 ft | 165 kts | 348° |
| 2026-04-21 09:53 | 56.23919 | -5.33377 | 4728 ft | 165 kts | 348° |
| 2026-04-21 09:53 | 56.25009 | -5.34110 | 4707 ft | 167 kts | 347° |
| 2026-04-21 09:53 | 56.26113 | -5.34886 | 4678 ft | 169 kts | 346° |
| 2026-04-21 09:54 | 56.27194 | -5.35650 | 4694 ft | 167 kts | 347° |
| 2026-04-21 09:54 | 56.28284 | -5.36373 | 4687 ft | 167 kts | 349° |
| 2026-04-21 09:54 | 56.29378 | -5.37007 | 4674 ft | 166 kts | 351° |
| 2026-04-21 09:54 | 56.30485 | -5.37614 | 4677 ft | 165 kts | 352° |
| 2026-04-21 09:55 | 56.31601 | -5.38177 | 4667 ft | 165 kts | 354° |
| 2026-04-21 09:55 | 56.32702 | -5.38635 | 4664 ft | 163 kts | 357° |
| 2026-04-21 09:55 | 56.33825 | -5.38953 | 4649 ft | 162 kts | 2° |
| 2026-04-21 09:55 | 56.34940 | -5.39077 | 4636 ft | 160 kts | 7° |
| 2026-04-21 09:56 | 56.36071 | -5.39372 | 4610 ft | 166 kts | 354° |
| 2026-04-21 09:56 | 56.37177 | -5.40086 | 4609 ft | 170 kts | 342° |
| 2026-04-21 09:56 | 56.38209 | -5.41143 | 4608 ft | 172 kts | 333° |
| 2026-04-21 09:56 | 56.39196 | -5.42330 | 4611 ft | 172 kts | 333° |
| 2026-04-21 09:57 | 56.40210 | -5.43496 | 4616 ft | 170 kts | 335° |
| 2026-04-21 09:57 | 56.41230 | -5.44555 | 4593 ft | 171 kts | 339° |
| 2026-04-21 09:57 | 56.42269 | -5.45465 | 4592 ft | 168 kts | 344° |
| 2026-04-21 09:57 | 56.43345 | -5.46192 | 4595 ft | 165 kts | 351° |
| 2026-04-21 09:58 | 56.44465 | -5.46673 | 4571 ft | 163 kts | 359° |
| 2026-04-21 09:58 | 56.45593 | -5.46978 | 4577 ft | 163 kts | 356° |
| 2026-04-21 09:58 | 56.46695 | -5.47440 | 4579 ft | 165 kts | 352° |
| 2026-04-21 09:58 | 56.47800 | -5.48063 | 4553 ft | 167 kts | 349° |
| 2026-04-21 09:59 | 56.48923 | -5.48649 | 4550 ft | 165 kts | 355° |
| 2026-04-21 09:59 | 56.50032 | -5.48995 | 4543 ft | 162 kts | 2° |
| 2026-04-21 09:59 | 56.51158 | -5.49056 | 4533 ft | 159 kts | 11° |
| 2026-04-21 09:59 | 56.52242 | -5.48845 | 4535 ft | 156 kts | 16° |
| 2026-04-21 10:00 | 56.53319 | -5.48574 | 4554 ft | 155 kts | 16° |
| 2026-04-21 10:00 | 56.54389 | -5.48261 | 4533 ft | 155 kts | 20° |
| 2026-04-21 10:00 | 56.55405 | -5.47747 | 4528 ft | 153 kts | 26° |
| 2026-04-21 10:00 | 56.56412 | -5.47138 | 4535 ft | 152 kts | 27° |
| 2026-04-21 10:01 | 56.57403 | -5.46488 | 4522 ft | 152 kts | 28° |
| 2026-04-21 10:01 | 56.58396 | -5.45800 | 4534 ft | 151 kts | 28° |
| 2026-04-21 10:01 | 56.59372 | -5.45101 | 4534 ft | 150 kts | 31° |
| 2026-04-21 10:01 | 56.60287 | -5.44236 | 4515 ft | 148 kts | 39° |
| 2026-04-21 10:02 | 56.61915 | -5.42038 | 4513 ft | 145 kts | 49° |
| 2026-04-21 10:02 | 56.62668 | -5.40778 | 4501 ft | 145 kts | 49° |
| 2026-04-21 10:02 | 56.63378 | -5.39508 | 4544 ft | 142 kts | 52° |
| 2026-04-21 10:03 | 56.64050 | -5.38192 | 4512 ft | 144 kts | 53° |
| 2026-04-21 10:03 | 56.64749 | -5.36895 | 4512 ft | 144 kts | 50° |
| 2026-04-21 10:03 | 56.65487 | -5.35648 | 4531 ft | 144 kts | 48° |
| 2026-04-21 10:03 | 56.66240 | -5.34439 | 4500 ft | 146 kts | 46° |
| 2026-04-21 10:04 | 56.67014 | -5.33242 | 4533 ft | 143 kts | 47° |
| 2026-04-21 10:04 | 56.67763 | -5.32044 | 4519 ft | 144 kts | 49° |
| 2026-04-21 10:04 | 56.68531 | -5.30847 | 4511 ft | 145 kts | 45° |
| 2026-04-21 10:04 | 56.69329 | -5.29734 | 4530 ft | 145 kts | 43° |
| 2026-04-21 10:05 | 56.70145 | -5.28634 | 4517 ft | 146 kts | 43° |
| 2026-04-21 10:05 | 56.70940 | -5.27518 | 4516 ft | 145 kts | 45° |
| 2026-04-21 10:05 | 56.71702 | -5.26326 | 4515 ft | 144 kts | 49° |
| 2026-04-21 10:05 | 56.72411 | -5.25051 | 4517 ft | 144 kts | 48° |
| 2026-04-21 10:06 | 56.73198 | -5.23903 | 4503 ft | 146 kts | 43° |
| 2026-04-21 10:06 | 56.74026 | -5.22829 | 4523 ft | 145 kts | 41° |
| 2026-04-21 10:06 | 56.74871 | -5.21777 | 4508 ft | 147 kts | 41° |
| 2026-04-21 10:06 | 56.75726 | -5.20754 | 4509 ft | 147 kts | 38° |
| 2026-04-21 10:07 | 56.76620 | -5.19823 | 4518 ft | 148 kts | 35° |
| 2026-04-21 10:07 | 56.77533 | -5.18936 | 4510 ft | 148 kts | 35° |
| 2026-04-21 10:07 | 56.78420 | -5.18020 | 4516 ft | 147 kts | 38° |
| 2026-04-21 10:07 | 56.79287 | -5.17037 | 4515 ft | 147 kts | 39° |
| 2026-04-21 10:08 | 56.80153 | -5.16016 | 4536 ft | 145 kts | 39° |
| 2026-04-21 10:08 | 56.81009 | -5.15016 | 4518 ft | 147 kts | 38° |
| 2026-04-21 10:08 | 56.81878 | -5.14031 | 4527 ft | 146 kts | 38° |
| 2026-04-21 10:08 | 56.82729 | -5.13033 | 4534 ft | 146 kts | 39° |
| 2026-04-21 10:09 | 56.83582 | -5.12028 | 4523 ft | 147 kts | 38° |
| 2026-04-21 10:09 | 56.84449 | -5.11019 | 4526 ft | 147 kts | 38° |
| 2026-04-21 10:09 | 56.85313 | -5.10029 | 4522 ft | 147 kts | 38° |
| 2026-04-21 10:09 | 56.86189 | -5.09035 | 4526 ft | 147 kts | 38° |
| 2026-04-21 10:10 | 56.87036 | -5.08014 | 4510 ft | 148 kts | 40° |
| 2026-04-21 10:10 | 56.87881 | -5.06911 | 4505 ft | 147 kts | 42° |
| 2026-04-21 10:10 | 56.88692 | -5.05810 | 4528 ft | 145 kts | 43° |
| 2026-04-21 10:10 | 56.89503 | -5.04685 | 4524 ft | 145 kts | 43° |
| 2026-04-21 10:11 | 56.90302 | -5.03552 | 4505 ft | 146 kts | 44° |
| 2026-04-21 10:11 | 56.91097 | -5.02387 | 4510 ft | 145 kts | 45° |
| 2026-04-21 10:11 | 56.91861 | -5.01174 | 4506 ft | 145 kts | 47° |
| 2026-04-21 10:11 | 56.92606 | -4.99924 | 4483 ft | 146 kts | 48° |
| 2026-04-21 10:12 | 56.93342 | -4.98668 | 4507 ft | 144 kts | 48° |
| 2026-04-21 10:12 | 56.94076 | -4.97393 | 4495 ft | 145 kts | 49° |
| 2026-04-21 10:12 | 56.94799 | -4.96111 | 4489 ft | 145 kts | 49° |
| 2026-04-21 10:12 | 56.95516 | -4.94809 | 4503 ft | 144 kts | 50° |
| 2026-04-21 10:13 | 56.96227 | -4.93502 | 4503 ft | 144 kts | 50° |
| 2026-04-21 10:13 | 56.96933 | -4.92197 | 4498 ft | 144 kts | 49° |
| 2026-04-21 10:13 | 56.97665 | -4.90922 | 4495 ft | 145 kts | 47° |
| 2026-04-21 10:13 | 56.98436 | -4.89715 | 4480 ft | 147 kts | 44° |
| 2026-04-21 10:14 | 56.99249 | -4.88578 | 4489 ft | 147 kts | 41° |
| 2026-04-21 10:14 | 57.00093 | -4.87521 | 4488 ft | 148 kts | 38° |
| 2026-04-21 10:14 | 57.00979 | -4.86516 | 4486 ft | 148 kts | 37° |
| 2026-04-21 10:14 | 57.01853 | -4.85550 | 4497 ft | 147 kts | 37° |
| 2026-04-21 10:15 | 57.02734 | -4.84582 | 4497 ft | 148 kts | 37° |
| 2026-04-21 10:15 | 57.03616 | -4.83606 | 4482 ft | 148 kts | 37° |
| 2026-04-21 10:15 | 57.04496 | -4.82618 | 4496 ft | 147 kts | 37° |
| 2026-04-21 10:15 | 57.05366 | -4.81618 | 4481 ft | 148 kts | 38° |
| 2026-04-21 10:16 | 57.06243 | -4.80577 | 4491 ft | 147 kts | 39° |
| 2026-04-21 10:16 | 57.07099 | -4.79518 | 4481 ft | 148 kts | 40° |
| 2026-04-21 10:16 | 57.07934 | -4.78431 | 4467 ft | 148 kts | 41° |
| 2026-04-21 10:16 | 57.08746 | -4.77255 | 4479 ft | 146 kts | 45° |
| 2026-04-21 10:17 | 57.09521 | -4.76040 | 4470 ft | 146 kts | 46° |
| 2026-04-21 10:17 | 57.10233 | -4.74879 | 4463 ft | 146 kts | 47° |
| 2026-04-21 10:17 | 57.10965 | -4.73646 | 4485 ft | 145 kts | 47° |
| 2026-04-21 10:17 | 57.11704 | -4.72402 | 4478 ft | 146 kts | 47° |
| 2026-04-21 10:18 | 57.12470 | -4.71194 | 4475 ft | 146 kts | 44° |
| 2026-04-21 10:18 | 57.13261 | -4.70018 | 4484 ft | 146 kts | 44° |
| 2026-04-21 10:18 | 57.14061 | -4.68843 | 4485 ft | 146 kts | 44° |
| 2026-04-21 10:18 | 57.14852 | -4.67676 | 4483 ft | 146 kts | 44° |
| 2026-04-21 10:19 | 57.15634 | -4.66505 | 4486 ft | 145 kts | 44° |
| 2026-04-21 10:19 | 57.16413 | -4.65310 | 4497 ft | 144 kts | 45° |
| 2026-04-21 10:19 | 57.17180 | -4.64085 | 4478 ft | 145 kts | 46° |
| 2026-04-21 10:19 | 57.17919 | -4.62835 | 4469 ft | 145 kts | 48° |
| 2026-04-21 10:20 | 57.18645 | -4.61522 | 4479 ft | 144 kts | 50° |
| 2026-04-21 10:20 | 57.19356 | -4.60225 | 4469 ft | 145 kts | 47° |
| 2026-04-21 10:20 | 57.20130 | -4.58996 | 4470 ft | 146 kts | 44° |
| 2026-04-21 10:20 | 57.20946 | -4.57859 | 4477 ft | 147 kts | 41° |
| 2026-04-21 10:21 | 57.21796 | -4.56802 | 4473 ft | 148 kts | 38° |
| 2026-04-21 10:21 | 57.22670 | -4.55819 | 4474 ft | 148 kts | 36° |
| 2026-04-21 10:21 | 57.23568 | -4.54868 | 4428 ft | 149 kts | 36° |
| 2026-04-21 10:21 | 57.24469 | -4.53852 | 4213 ft | 154 kts | 37° |
| 2026-04-21 10:22 | 57.25362 | -4.52771 | 4137 ft | 150 kts | 38° |
| 2026-04-21 10:22 | 57.26211 | -4.51718 | 4033 ft | 149 kts | 39° |
| 2026-04-21 10:22 | 57.27061 | -4.50572 | 3874 ft | 151 kts | 41° |
| 2026-04-21 10:22 | 57.27882 | -4.49401 | 3812 ft | 147 kts | 43° |
| 2026-04-21 10:23 | 57.28655 | -4.48196 | 3682 ft | 147 kts | 45° |
| 2026-04-21 10:23 | 57.29434 | -4.46945 | 3561 ft | 147 kts | 44° |
| 2026-04-21 10:23 | 57.30219 | -4.45756 | 3470 ft | 146 kts | 43° |
| 2026-04-21 10:23 | 57.31030 | -4.44583 | 3333 ft | 148 kts | 41° |
| 2026-04-21 10:24 | 57.31859 | -4.43426 | 3228 ft | 147 kts | 40° |
| 2026-04-21 10:24 | 57.32706 | -4.42378 | 3135 ft | 147 kts | 36° |
| 2026-04-21 10:24 | 57.33593 | -4.41416 | 3016 ft | 148 kts | 35° |
| 2026-04-21 10:24 | 57.34476 | -4.40450 | 2924 ft | 147 kts | 34° |
| 2026-04-21 10:25 | 57.35356 | -4.39507 | 2815 ft | 147 kts | 35° |
| 2026-04-21 10:25 | 57.36241 | -4.38522 | 2696 ft | 148 kts | 35° |
| 2026-04-21 10:25 | 57.37073 | -4.37479 | 2600 ft | 144 kts | 46° |
| 2026-04-21 10:25 | 57.37655 | -4.35941 | 2403 ft | 146 kts | 67° |
| 2026-04-21 10:26 | 57.38048 | -4.34314 | 2384 ft | 139 kts | 67° |
| 2026-04-21 10:26 | 57.38454 | -4.32693 | 2284 ft | 140 kts | 66° |
| 2026-04-21 10:26 | 57.38873 | -4.31044 | 2098 ft | 144 kts | 66° |
| 2026-04-21 10:26 | 57.39319 | -4.29406 | 2073 ft | 137 kts | 64° |
| 2026-04-21 10:27 | 57.39783 | -4.27895 | 2028 ft | 136 kts | 61° |
| 2026-04-21 10:27 | 57.40308 | -4.26409 | 2035 ft | 136 kts | 58° |
| 2026-04-21 10:27 | 57.40825 | -4.24959 | 2052 ft | 135 kts | 60° |
| 2026-04-21 10:27 | 57.41340 | -4.23474 | 2027 ft | 137 kts | 59° |
| 2026-04-21 10:28 | 57.41869 | -4.22006 | 2022 ft | 137 kts | 59° |
| 2026-04-21 10:28 | 57.42405 | -4.20563 | 2034 ft | 136 kts | 58° |
| 2026-04-21 10:28 | 57.42944 | -4.19119 | 2026 ft | 136 kts | 58° |
| 2026-04-21 10:28 | 57.43483 | -4.17674 | 2021 ft | 136 kts | 58° |
| 2026-04-21 10:29 | 57.44014 | -4.16233 | 2015 ft | 136 kts | 58° |
| 2026-04-21 10:29 | 57.44550 | -4.14747 | 1976 ft | 139 kts | 58° |
| 2026-04-21 10:29 | 57.45085 | -4.13265 | 1988 ft | 136 kts | 59° |
| 2026-04-21 10:29 | 57.45615 | -4.11820 | 1988 ft | 137 kts | 56° |
| 2026-04-21 10:30 | 57.46212 | -4.10419 | 1954 ft | 140 kts | 52° |
| 2026-04-21 10:30 | 57.46881 | -4.09124 | 1990 ft | 139 kts | 40° |
| 2026-04-21 10:30 | 57.47841 | -4.08536 | 1820 ft | 157 kts | 7° |
| 2026-04-21 10:30 | 57.48906 | -4.08952 | 1716 ft | 151 kts | 343° |
| 2026-04-21 10:31 | 57.49760 | -4.09759 | 1521 ft | 131 kts | 338° |
| 2026-04-21 10:31 | 57.50569 | -4.10431 | 1106 ft | 123 kts | 349° |
| 2026-04-21 10:31 | 57.51324 | -4.10434 | 815 ft | 105 kts | 23° |
| 2026-04-21 10:31 | 57.51903 | -4.09836 | 623 ft | 91 kts | 42° |
| 2026-04-21 10:32 | 57.52328 | -4.09008 | 534 ft | 86 kts | 59° |
| 2026-04-21 10:32 | 57.52696 | -4.08150 | 442 ft | 86 kts | 49° |
| 2026-04-21 10:32 | 57.53093 | -4.07280 | 307 ft | 89 kts | 50° |
| 2026-04-21 10:32 | 57.53498 | -4.06389 | 153 ft | 93 kts | 52° |
| 2026-04-21 10:33 | 57.53919 | -4.05478 | 31 ft | 87 kts | 50° |
| 2026-04-21 10:33 | 57.54236 | -4.04776 | 26 ft | 46 kts | 50° |
| 2026-04-21 10:33 | 57.54354 | -4.04553 | 26 ft | 13 kts | 42° |
| 2026-04-21 10:33 | 57.54314 | -4.04580 | 26 ft | 14 kts | 238° |
| 2026-04-21 10:34 | 57.54258 | -4.04765 | 26 ft | 18 kts | 248° |
| 2026-04-21 10:34 | 57.54281 | -4.05008 | 26 ft | 20 kts | 289° |
| 2026-04-21 10:34 | 57.54328 | -4.05262 | 26 ft | 21 kts | 288° |
| 2026-04-21 10:34 | 57.54377 | -4.05537 | 26 ft | 23 kts | 287° |
| 2026-04-21 10:35 | 57.54431 | -4.05824 | 26 ft | 23 kts | 290° |
| 2026-04-21 10:35 | 57.54455 | -4.06055 | 26 ft | 14 kts | 243° |
| 2026-04-21 10:35 | 57.54385 | -4.06203 | 26 ft | 16 kts | 222° |
| 2026-04-21 10:35 | 57.54322 | -4.06211 | 26 ft | 10 kts | 117° |
| 2026-04-21 10:36 | 57.54275 | -4.06189 | 26 ft | 5 kts | 242° |
| 2026-04-21 10:36 | 57.54274 | -4.06198 | 26 ft | 0 kts | 274° |